Time;durP1;ratioP1;P1;durP2;ratioP2;P2;SDS_P1;SDS_P2;PMS_P1;PMS_P2;Temp;Humidity;BMP_temperature;BMP_pressure;BME280_temperature;BME280_humidity;BME280_pressure;Samples;Min_cycle;Max_cycle;Signal;HPM_P1;HPM_P2
2024/02/01 00:00:21;;;;;;;6.97;3.78;;;11.30;47.50;;;;;;5031577;28;20063;-62
2024/02/01 00:02:50;;;;;;;7.82;3.28;;;11.30;47.40;;;;;;5036271;28;20064;-62
2024/02/01 00:05:21;;;;;;;8.35;3.05;;;11.40;47.40;;;;;;5033829;28;20049;-61
2024/02/01 00:07:50;;;;;;;14.00;3.83;;;11.40;47.40;;;;;;5033516;28;20072;-61
2024/02/01 00:10:19;;;;;;;9.15;3.70;;;11.30;47.40;;;;;;5039356;28;20067;-61
2024/02/01 00:12:47;;;;;;;6.50;3.15;;;11.40;47.40;;;;;;5030350;28;20307;-62
2024/02/01 00:15:16;;;;;;;8.88;2.53;;;11.30;47.30;;;;;;5040154;28;20060;-62
2024/02/01 00:17:46;;;;;;;11.32;3.30;;;11.30;47.40;;;;;;5028360;28;20064;-62
2024/02/01 00:20:15;;;;;;;11.45;3.00;;;11.20;47.40;;;;;;5034152;28;20119;-60
2024/02/01 00:22:46;;;;;;;6.88;2.85;;;11.10;47.50;;;;;;5036023;28;20053;-62
2024/02/01 00:25:15;;;;;;;13.65;3.13;;;11.10;47.50;;;;;;5039146;28;20055;-61
2024/02/01 00:27:45;;;;;;;5.90;2.42;;;11.00;47.60;;;;;;5036994;28;20052;-62
2024/02/01 00:30:17;;;;;;;6.28;3.22;;;10.90;47.60;;;;;;5037008;28;20056;-61
2024/02/01 00:32:46;;;;;;;7.75;2.60;;;10.90;47.60;;;;;;5036152;28;20067;-61
2024/02/01 00:35:14;;;;;;;13.02;3.85;;;10.80;47.60;;;;;;5039104;28;20060;-61
2024/02/01 00:37:45;;;;;;;3.35;2.00;;;10.80;47.60;;;;;;5034820;28;20159;-60
2024/02/01 00:40:14;;;;;;;4.95;2.60;;;10.70;47.60;;;;;;5036171;28;20048;-61
2024/02/01 00:42:44;;;;;;;7.30;3.15;;;10.70;47.70;;;;;;5038790;28;20084;-61
2024/02/01 00:45:12;;;;;;;8.85;3.33;;;10.60;47.70;;;;;;5037510;28;20134;-61
2024/02/01 00:47:42;;;;;;;5.30;2.80;;;10.50;47.70;;;;;;5021103;28;20069;-63
2024/02/01 00:50:11;;;;;;;4.40;2.47;;;10.50;47.80;;;;;;5038753;28;20106;-62
2024/02/01 00:52:39;;;;;;;11.70;2.80;;;10.50;47.90;;;;;;5038085;28;20059;-61
2024/02/01 00:55:10;;;;;;;7.25;3.40;;;10.40;48.00;;;;;;5039701;28;20136;-61
2024/02/01 00:57:39;;;;;;;6.97;2.83;;;10.40;48.10;;;;;;5028169;28;20530;-61
2024/02/01 01:00:08;;;;;;;6.80;3.17;;;10.30;48.70;;;;;;5036777;28;20057;-61
2024/02/01 01:02:37;;;;;;;7.90;3.63;;;10.30;48.20;;;;;;5046395;28;20053;-62
2024/02/01 01:05:07;;;;;;;9.55;2.78;;;10.30;48.20;;;;;;5039060;28;20518;-61
2024/02/01 01:07:37;;;;;;;5.85;2.47;;;10.20;48.10;;;;;;5035885;28;20057;-63
2024/02/01 01:10:07;;;;;;;4.25;2.53;;;10.20;48.30;;;;;;5042546;28;20115;-62
2024/02/01 01:12:37;;;;;;;5.22;2.85;;;10.10;48.20;;;;;;5041408;28;20056;-61
2024/02/01 01:15:07;;;;;;;11.32;3.67;;;10.10;48.20;;;;;;5050765;28;20041;-63
2024/02/01 01:17:38;;;;;;;4.80;2.67;;;10.10;48.40;;;;;;5035342;28;20052;-61
2024/02/01 01:20:08;;;;;;;6.15;3.65;;;10.10;48.60;;;;;;5049594;28;20246;-62
2024/02/01 01:22:38;;;;;;;5.43;1.70;;;10.10;48.80;;;;;;5040351;28;20165;-60
2024/02/01 01:25:07;;;;;;;6.78;2.10;;;10.10;48.40;;;;;;5037541;28;20049;-60
2024/02/01 01:27:38;;;;;;;5.28;3.15;;;10.20;48.50;;;;;;5031399;28;20067;-62
2024/02/01 01:30:08;;;;;;;6.25;2.70;;;10.20;49.10;;;;;;5051977;28;20055;-60
2024/02/01 01:32:37;;;;;;;7.68;2.58;;;10.20;48.40;;;;;;5031764;28;20157;-61
2024/02/01 01:35:06;;;;;;;6.07;2.58;;;10.20;48.40;;;;;;5040326;28;20061;-61
2024/02/01 01:37:36;;;;;;;5.47;2.63;;;10.10;48.40;;;;;;5032974;28;20060;-61
2024/02/01 01:40:06;;;;;;;6.32;3.00;;;10.10;48.40;;;;;;5040048;28;20092;-60
2024/02/01 01:42:34;;;;;;;4.68;2.15;;;10.10;48.50;;;;;;5039657;28;20491;-60
2024/02/01 01:45:05;;;;;;;5.95;3.03;;;10.10;48.60;;;;;;5035225;28;20083;-60
2024/02/01 01:47:36;;;;;;;11.70;4.47;;;10.00;48.50;;;;;;5030785;28;20061;-75
2024/02/01 01:50:08;;;;;;;5.88;2.95;;;10.10;48.80;;;;;;5038331;28;20080;-61
2024/02/01 01:52:38;;;;;;;8.82;3.83;;;9.90;48.50;;;;;;5030938;28;20037;-73
2024/02/01 01:55:09;;;;;;;6.20;2.75;;;9.90;48.50;;;;;;5039784;28;20144;-60
2024/02/01 01:57:39;;;;;;;7.68;3.03;;;9.90;48.50;;;;;;5026102;28;20446;-61
2024/02/01 02:00:13;;;;;;;12.88;4.80;;;9.90;48.50;;;;;;5037943;28;20510;-61
2024/02/01 02:02:44;;;;;;;4.95;2.20;;;9.90;48.60;;;;;;5038713;28;20056;-62
2024/02/01 02:05:14;;;;;;;10.50;3.08;;;9.80;48.50;;;;;;5038222;28;20057;-61
2024/02/01 02:07:42;;;;;;;10.13;3.83;;;9.80;48.60;;;;;;5029520;28;20143;-63
2024/02/01 02:10:14;;;;;;;22.73;6.50;;;9.80;48.70;;;;;;5042448;28;20152;-64
2024/02/01 02:12:45;;;;;;;23.70;4.90;;;9.80;48.70;;;;;;5034136;28;20084;-63
2024/02/01 02:15:16;;;;;;;9.68;2.95;;;9.80;48.70;;;;;;5038832;28;20083;-62
2024/02/01 02:17:44;;;;;;;10.32;3.70;;;9.80;48.70;;;;;;5026210;28;21066;-61
2024/02/01 02:20:17;;;;;;;3.72;2.25;;;9.80;48.70;;;;;;5054564;28;20128;-62
2024/02/01 02:22:52;;;;;;;10.80;3.53;;;9.80;48.80;;;;;;5031850;28;20061;-62
2024/02/01 02:25:21;;;;;;;25.27;7.30;;;9.80;48.70;;;;;;5031315;28;20037;-61
2024/02/01 02:27:51;;;;;;;7.40;2.42;;;9.90;48.70;;;;;;5029448;28;20875;-62
2024/02/01 02:30:20;;;;;;;3.45;2.00;;;9.90;48.60;;;;;;5035551;28;20061;-61
2024/02/01 02:32:49;;;;;;;3.40;2.15;;;9.90;48.70;;;;;;5036901;28;20112;-62
2024/02/01 02:35:17;;;;;;;9.85;3.20;;;9.90;48.70;;;;;;5043350;28;20051;-62
2024/02/01 02:37:49;;;;;;;5.35;3.10;;;9.90;48.80;;;;;;5031195;28;20048;-60
2024/02/01 02:40:20;;;;;;;9.70;3.47;;;9.90;48.90;;;;;;5038251;28;20059;-61
2024/02/01 02:42:49;;;;;;;6.85;3.25;;;10.00;48.90;;;;;;5040507;28;20053;-62
2024/02/01 02:45:19;;;;;;;9.23;4.00;;;10.10;48.90;;;;;;5036386;28;20421;-63
2024/02/01 02:47:49;;;;;;;6.82;2.33;;;10.20;48.90;;;;;;5026201;28;20061;-80
2024/02/01 02:50:18;;;;;;;5.15;2.45;;;10.30;48.90;;;;;;5035623;28;20502;-63
2024/02/01 02:52:48;;;;;;;10.55;4.60;;;10.40;48.80;;;;;;5040135;28;20134;-62
2024/02/01 02:55:17;;;;;;;7.95;3.35;;;10.50;48.70;;;;;;5034126;28;20107;-62
2024/02/01 02:57:46;;;;;;;6.28;3.13;;;10.60;48.60;;;;;;5032186;28;20068;-65
2024/02/01 03:00:18;;;;;;;5.13;3.30;;;10.70;48.60;;;;;;5033060;28;20151;-62
2024/02/01 03:02:49;;;;;;;7.38;3.05;;;10.80;48.40;;;;;;5035516;28;20065;-61
2024/02/01 03:05:19;;;;;;;35.03;9.98;;;10.80;48.40;;;;;;5037044;28;20076;-62
2024/02/01 03:07:51;;;;;;;9.50;4.05;;;10.90;48.50;;;;;;5030298;28;20057;-61
2024/02/01 03:10:22;;;;;;;9.00;3.55;;;10.90;48.30;;;;;;5037857;28;21517;-64
2024/02/01 03:12:51;;;;;;;7.00;3.78;;;10.90;48.20;;;;;;5036127;28;20068;-62
2024/02/01 03:15:22;;;;;;;22.98;6.82;;;10.90;48.20;;;;;;5041180;28;20053;-62
2024/02/01 03:17:51;;;;;;;15.50;4.93;;;10.80;48.20;;;;;;5037502;28;20466;-63
2024/02/01 03:20:23;;;;;;;32.53;10.95;;;10.80;48.20;;;;;;5031249;28;21264;-61
2024/02/01 03:22:54;;;;;;;14.38;4.95;;;10.80;48.20;;;;;;5036143;28;20053;-61
2024/02/01 03:25:28;;;;;;;10.48;4.03;;;10.80;48.20;;;;;;5027452;28;20460;-62
2024/02/01 03:28:00;;;;;;;5.22;2.85;;;10.80;48.20;;;;;;5034672;28;20056;-61
2024/02/01 03:30:31;;;;;;;6.63;3.00;;;10.80;48.20;;;;;;5027766;28;20088;-61
2024/02/01 03:33:02;;;;;;;5.47;3.47;;;10.80;48.30;;;;;;5049450;28;20068;-61
2024/02/01 03:35:32;;;;;;;7.28;3.60;;;10.80;48.30;;;;;;5036387;28;20744;-62
2024/02/01 03:38:02;;;;;;;12.30;3.53;;;10.80;48.30;;;;;;5040699;28;20064;-67
2024/02/01 03:40:31;;;;;;;8.77;4.20;;;10.90;48.40;;;;;;5029971;28;20057;-61
2024/02/01 03:43:00;;;;;;;7.78;3.40;;;10.80;48.40;;;;;;5035064;28;20053;-62
2024/02/01 03:45:30;;;;;;;30.63;8.82;;;10.90;48.40;;;;;;5040547;28;20057;-61
2024/02/01 03:47:58;;;;;;;8.88;3.35;;;10.90;48.40;;;;;;5030760;28;20141;-62
2024/02/01 03:50:38;;;;;;;10.27;4.30;;;11.00;48.40;;;;;;5034725;28;20141;-61
2024/02/01 03:53:10;;;;;;;9.00;4.32;;;11.10;48.40;;;;;;5034743;28;20061;-61
2024/02/01 03:55:40;;;;;;;18.00;3.90;;;11.10;48.20;;;;;;5035616;28;20792;-61
2024/02/01 03:58:09;;;;;;;6.15;2.72;;;11.10;48.20;;;;;;5048926;28;20053;-61
2024/02/01 04:00:38;;;;;;;35.20;5.00;;;11.20;48.30;;;;;;5028215;28;20465;-62
2024/02/01 04:03:13;;;;;;;6.93;4.07;;;11.20;48.30;;;;;;5035271;28;20059;-61
2024/02/01 04:05:43;;;;;;;;;;;11.30;48.30;;;;;;5040149;28;20052;-61
2024/02/01 04:08:17;;;;;;;8.80;4.10;;;11.40;48.20;;;;;;5035461;28;19924;-62
2024/02/01 04:10:46;;;;;;;22.73;4.32;;;11.40;48.20;;;;;;5035151;28;20064;-61
2024/02/01 04:13:16;;;;;;;7.10;3.67;;;11.40;48.20;;;;;;5034975;28;20143;-62
2024/02/01 04:15:45;;;;;;;171.82;43.80;;;11.50;48.20;;;;;;5037176;28;20105;-62
2024/02/01 04:18:13;;;;;;;23.58;5.78;;;11.50;48.10;;;;;;5040215;28;20412;-61
2024/02/01 04:20:42;;;;;;;15.18;4.72;;;11.50;48.20;;;;;;5037724;28;20151;-63
2024/02/01 04:23:11;;;;;;;15.32;5.80;;;11.60;48.10;;;;;;5033547;28;20102;-62
2024/02/01 04:25:41;;;;;;;12.75;5.30;;;11.60;48.10;;;;;;5038399;28;20644;-62
2024/02/01 04:28:12;;;;;;;26.58;7.53;;;11.70;48.40;;;;;;5042249;28;20055;-61
2024/02/01 04:30:40;;;;;;;17.23;5.88;;;11.70;48.10;;;;;;5038332;28;20071;-61
2024/02/01 04:33:08;;;;;;;28.92;7.95;;;11.70;48.10;;;;;;5024232;28;20060;-62
2024/02/01 04:35:37;;;;;;;21.10;3.53;;;11.70;48.10;;;;;;5035323;28;20541;-61
2024/02/01 04:38:05;;;;;;;15.25;4.03;;;11.80;48.10;;;;;;5040068;28;20075;-73
2024/02/01 04:40:33;;;;;;;19.08;3.15;;;11.80;48.10;;;;;;5037914;28;20057;-61
2024/02/01 04:43:05;;;;;;;35.40;9.63;;;11.80;48.10;;;;;;5037057;28;20061;-60
2024/02/01 04:45:33;;;;;;;4.80;2.50;;;11.80;48.10;;;;;;5032856;28;20049;-61
2024/02/01 04:48:03;;;;;;;17.55;3.53;;;11.90;48.10;;;;;;5037950;28;20139;-61
2024/02/01 04:50:31;;;;;;;25.75;6.82;;;11.80;48.00;;;;;;5038862;28;20065;-60
2024/02/01 04:53:00;;;;;;;13.65;3.65;;;11.90;48.10;;;;;;5037502;28;20076;-61
2024/02/01 04:55:29;;;;;;;10.73;3.33;;;11.90;48.10;;;;;;5031976;28;20148;-63
2024/02/01 04:57:58;;;;;;;23.63;7.20;;;11.90;48.00;;;;;;5033282;28;20508;-61
2024/02/01 05:00:28;;;;;;;15.00;4.00;;;11.90;48.00;;;;;;5038207;28;20064;-61
2024/02/01 05:02:56;;;;;;;5.30;2.90;;;11.90;48.10;;;;;;5039575;28;20099;-61
2024/02/01 05:05:26;;;;;;;51.33;12.38;;;11.90;48.10;;;;;;5031917;28;20152;-62
2024/02/01 05:07:56;;;;;;;15.75;4.70;;;12.00;48.10;;;;;;5030476;28;20131;-62
2024/02/01 05:10:26;;;;;;;6.00;3.45;;;12.00;48.10;;;;;;5028018;28;20053;-61
2024/02/01 05:12:54;;;;;;;10.63;3.70;;;12.00;48.10;;;;;;5036458;28;20478;-60
2024/02/01 05:15:23;;;;;;;9.05;3.03;;;12.00;48.10;;;;;;5034947;28;20060;-62
2024/02/01 05:17:53;;;;;;;6.85;3.15;;;12.00;48.10;;;;;;5034254;28;20103;-61
2024/02/01 05:20:21;;;;;;;4.78;2.38;;;12.00;48.20;;;;;;5032216;28;20766;-62
2024/02/01 05:22:50;;;;;;;8.98;3.75;;;12.00;48.30;;;;;;5036288;28;20144;-61
2024/02/01 05:25:20;;;;;;;8.55;3.22;;;12.00;48.80;;;;;;5029954;28;20057;-61
2024/02/01 05:27:52;;;;;;;4.75;2.63;;;12.10;48.20;;;;;;5035050;28;20075;-62
2024/02/01 05:30:22;;;;;;;7.45;2.92;;;12.10;48.30;;;;;;5030683;28;20065;-61
2024/02/01 05:32:53;;;;;;;11.65;3.25;;;12.10;48.20;;;;;;5028775;28;20073;-61
2024/02/01 05:35:27;;;;;;;15.93;3.67;;;12.10;48.20;;;;;;5037353;28;20136;-62
2024/02/01 05:37:57;;;;;;;11.82;3.65;;;12.10;48.20;;;;;;5033096;28;20076;-62
2024/02/01 05:40:26;;;;;;;7.50;2.75;;;12.20;48.20;;;;;;5035899;28;20048;-63
2024/02/01 05:42:55;;;;;;;3.17;2.03;;;12.20;48.10;;;;;;5031713;28;20364;-62
2024/02/01 05:45:27;;;;;;;27.58;3.10;;;12.20;48.10;;;;;;5026798;28;20052;-59
2024/02/01 05:47:59;;;;;;;8.20;3.28;;;12.20;48.20;;;;;;5035138;28;20525;-62
2024/02/01 05:50:28;;;;;;;7.55;2.95;;;12.30;48.20;;;;;;5034062;28;20368;-61
2024/02/01 05:52:57;;;;;;;9.60;3.55;;;12.30;48.10;;;;;;5022801;28;20129;-59
2024/02/01 05:55:25;;;;;;;6.75;2.90;;;12.40;48.10;;;;;;5033298;28;20061;-62
2024/02/01 05:57:53;;;;;;;8.98;3.13;;;12.40;48.00;;;;;;5030853;28;20507;-61
2024/02/01 06:00:22;;;;;;;11.98;3.05;;;12.40;48.60;;;;;;5033454;28;20171;-64
2024/02/01 06:02:53;;;;;;;6.32;3.08;;;12.40;47.90;;;;;;5031210;28;20438;-63
2024/02/01 06:05:24;;;;;;;38.85;3.70;;;12.40;47.90;;;;;;5026357;28;20051;-61
2024/02/01 06:07:53;;;;;;;13.93;2.63;;;12.30;47.90;;;;;;5032922;28;20685;-61
2024/02/01 06:10:21;;;;;;;9.10;2.78;;;12.30;48.00;;;;;;5035077;28;20059;-60
2024/02/01 06:12:50;;;;;;;6.55;3.08;;;12.30;48.00;;;;;;5036504;28;20429;-60
2024/02/01 06:15:18;;;;;;;9.52;2.95;;;12.20;48.00;;;;;;5035407;28;20085;-60
2024/02/01 06:17:47;;;;;;;10.88;3.70;;;12.20;48.10;;;;;;5027416;28;20076;-61
2024/02/01 06:20:15;;;;;;;19.80;2.95;;;12.30;48.10;;;;;;5035894;28;20060;-61
2024/02/01 06:22:45;;;;;;;5.00;2.72;;;12.30;48.00;;;;;;5032703;28;20053;-60
2024/02/01 06:25:14;;;;;;;6.53;2.75;;;12.30;48.00;;;;;;5035000;28;20092;-62
2024/02/01 06:27:42;;;;;;;12.23;2.97;;;12.30;48.10;;;;;;5031242;28;20056;-61
2024/02/01 06:30:12;;;;;;;5.55;3.15;;;12.30;48.00;;;;;;5031978;28;20461;-67
2024/02/01 06:32:41;;;;;;;8.75;3.05;;;12.30;48.00;;;;;;5033813;28;20450;-60
2024/02/01 06:35:16;;;;;;;14.23;3.45;;;12.30;48.00;;;;;;5034838;28;20052;-61
2024/02/01 06:37:52;;;;;;;8.10;3.67;;;12.30;48.00;;;;;;5033938;28;20486;-62
2024/02/01 06:40:48;;;;;;;9.73;3.93;;;12.30;48.00;;;;;;5026026;28;20063;-60
2024/02/01 06:43:27;;;;;;;8.90;3.83;;;12.40;48.10;;;;;;5031932;28;20118;-60
2024/02/01 06:46:08;;;;;;;6.32;3.35;;;12.30;48.00;;;;;;5032211;28;20056;-61
2024/02/01 06:48:44;;;;;;;6.57;3.03;;;12.30;48.10;;;;;;5032330;28;20053;-60
2024/02/01 06:51:25;;;;;;;6.53;3.70;;;12.30;48.10;;;;;;5033829;28;20144;-60
2024/02/01 06:53:57;;;;;;;7.60;3.47;;;12.30;48.20;;;;;;5036003;28;20227;-61
2024/02/01 06:56:48;;;;;;;10.18;2.70;;;12.40;48.30;;;;;;5031856;28;20061;-60
2024/02/01 06:59:31;;;;;;;11.40;3.67;;;12.50;48.20;;;;;;5035723;28;20125;-62
2024/02/01 07:02:11;;;;;;;6.30;3.15;;;12.50;48.10;;;;;;5032307;28;20060;-59
2024/02/01 07:04:50;;;;;;;11.38;3.22;;;12.60;48.20;;;;;;5034652;28;20072;-61
2024/02/01 07:07:18;;;;;;;34.08;4.32;;;12.60;48.20;;;;;;5031387;28;20061;-62
2024/02/01 07:09:58;;;;;;;8.57;3.58;;;12.70;48.20;;;;;;5032919;28;20165;-60
2024/02/01 07:12:42;;;;;;;9.23;3.17;;;12.80;48.20;;;;;;5028938;28;20060;-60
2024/02/01 07:18:14;;;;;;;15.10;4.88;;;12.70;48.10;;;;;;4996685;28;20052;-62
2024/02/01 07:20:50;;;;;;;16.38;5.00;;;12.70;48.10;;;;;;5029573;28;20085;-60
2024/02/01 07:23:48;;;;;;;14.20;3.30;;;12.70;48.20;;;;;;5035722;28;20091;-61
2024/02/01 07:26:35;;;;;;;16.55;4.50;;;12.70;48.30;;;;;;5024936;28;20450;-60
2024/02/01 08:00:17;;;;;;;6.80;3.33;;;13.20;48.30;;;;;;4959573;28;20189;-60
2024/02/01 08:02:49;;;;;;;14.27;5.18;;;13.20;48.30;;;;;;4976156;28;20460;-62
2024/02/01 08:08:06;;;;;;;18.13;4.28;;;13.20;48.40;;;;;;5014210;28;20486;-62
2024/02/01 08:10:34;;;;;;;9.70;4.70;;;13.20;48.40;;;;;;5034119;28;20064;-60
2024/02/01 08:13:07;;;;;;;22.33;6.25;;;13.20;48.30;;;;;;5029736;28;20053;-61
2024/02/01 08:15:38;;;;;;;12.07;5.55;;;13.10;48.30;;;;;;5032050;28;20098;-61
2024/02/01 08:18:08;;;;;;;35.28;6.90;;;13.20;48.40;;;;;;5017515;28;20067;-59
2024/02/01 08:20:36;;;;;;;14.20;5.38;;;13.20;48.30;;;;;;5024286;28;20041;-61
2024/02/01 08:23:06;;;;;;;12.50;5.47;;;13.20;48.30;;;;;;5033811;28;20156;-60
2024/02/01 08:25:40;;;;;;;9.27;4.95;;;13.20;48.20;;;;;;5030948;28;20136;-61
2024/02/01 08:28:09;;;;;;;29.67;6.38;;;13.30;48.30;;;;;;5005358;28;20060;-59
2024/02/01 08:30:39;;;;;;;14.60;5.50;;;13.40;48.20;;;;;;5025294;28;20057;-60
2024/02/01 08:33:15;;;;;;;15.50;5.88;;;13.40;48.10;;;;;;5025730;28;20148;-62
2024/02/01 08:35:45;;;;;;;22.02;4.65;;;13.40;48.00;;;;;;5024043;28;20136;-62
2024/02/01 08:38:15;;;;;;;21.52;5.55;;;13.40;48.00;;;;;;5013371;28;20053;-59
2024/02/01 08:40:43;;;;;;;13.32;5.53;;;13.30;47.90;;;;;;5027204;28;20065;-60
2024/02/01 08:43:13;;;;;;;15.80;5.53;;;13.30;48.00;;;;;;5028485;28;20045;-62
2024/02/01 08:45:44;;;;;;;21.33;6.38;;;13.20;48.00;;;;;;5036987;28;20160;-62
2024/02/01 08:48:13;;;;;;;20.83;6.03;;;13.20;48.00;;;;;;5018314;28;20057;-60
2024/02/01 08:50:45;;;;;;;13.80;5.75;;;13.30;48.10;;;;;;5032202;28;20733;-60
2024/02/01 08:53:15;;;;;;;21.67;7.85;;;13.30;48.10;;;;;;5029039;28;20375;-61
2024/02/01 08:55:45;;;;;;;14.00;5.07;;;13.40;48.10;;;;;;5032613;28;20414;-60
2024/02/01 08:58:13;;;;;;;12.10;4.60;;;13.30;48.00;;;;;;5022797;28;20067;-64
2024/02/01 09:00:43;;;;;;;16.23;5.80;;;13.40;48.10;;;;;;5033527;28;20049;-62
2024/02/01 09:03:16;;;;;;;22.50;6.22;;;13.40;48.10;;;;;;5029739;28;20049;-62
2024/02/01 09:05:47;;;;;;;14.23;5.57;;;13.50;48.10;;;;;;5020323;28;20056;-60
2024/02/01 09:08:24;;;;;;;24.55;9.93;;;13.50;48.10;;;;;;5019787;28;20041;-63
2024/02/01 09:10:58;;;;;;;27.98;9.38;;;13.60;48.30;;;;;;5036156;28;20049;-60
2024/02/01 09:13:30;;;;;;;25.02;5.47;;;13.70;48.10;;;;;;5026740;28;20056;-60
2024/02/01 09:16:00;;;;;;;26.60;5.13;;;13.80;48.00;;;;;;5021430;28;20160;-71
2024/02/01 09:18:29;;;;;;;37.15;6.18;;;13.80;47.90;;;;;;5019924;28;20049;-60
2024/02/01 09:20:58;;;;;;;35.38;5.78;;;13.90;47.90;;;;;;5031057;28;20065;-61
2024/02/01 09:23:27;;;;;;;24.52;5.82;;;13.90;48.00;;;;;;5030336;28;20068;-60
2024/02/01 09:25:57;;;;;;;16.13;4.78;;;13.90;47.80;;;;;;5028041;28;20476;-60
2024/02/01 09:28:25;;;;;;;30.10;6.25;;;14.00;47.90;;;;;;5022278;28;20045;-60
2024/02/01 09:30:55;;;;;;;22.30;5.15;;;14.00;47.90;;;;;;5021425;28;20062;-61
2024/02/01 09:33:27;;;;;;;11.02;4.75;;;14.00;47.80;;;;;;5030546;28;20061;-61
2024/02/01 09:35:57;;;;;;;15.85;5.43;;;14.10;47.90;;;;;;5019897;28;20601;-60
2024/02/01 09:38:26;;;;;;;17.23;6.28;;;14.10;47.90;;;;;;5023504;28;21009;-61
2024/02/01 09:40:55;;;;;;;14.77;5.53;;;14.10;47.80;;;;;;5019059;28;20063;-61
2024/02/01 09:43:25;;;;;;;26.95;6.43;;;14.20;47.90;;;;;;5033922;28;20532;-60
2024/02/01 09:45:55;;;;;;;15.00;5.03;;;14.20;47.90;;;;;;5039480;28;20057;-61
2024/02/01 09:48:26;;;;;;;24.40;5.05;;;14.10;47.90;;;;;;5021768;28;20139;-62
2024/02/01 09:50:56;;;;;;;15.80;5.65;;;14.10;47.90;;;;;;5030964;28;20128;-63
2024/02/01 09:53:26;;;;;;;9.40;4.72;;;14.00;47.90;;;;;;5025713;28;20049;-60
2024/02/01 09:55:58;;;;;;;24.38;5.22;;;13.90;47.90;;;;;;5022329;28;20141;-62
2024/02/01 09:58:28;;;;;;;11.90;5.32;;;13.80;48.00;;;;;;5018841;28;20496;-60
2024/02/01 10:00:56;;;;;;;13.10;6.03;;;13.70;48.00;;;;;;5023960;28;20135;-61
2024/02/01 10:03:27;;;;;;;14.80;5.50;;;13.60;48.10;;;;;;5031220;28;20056;-62
2024/02/01 10:06:04;;;;;;;14.63;5.50;;;13.50;48.10;;;;;;5025564;28;20561;-62
2024/02/01 10:08:34;;;;;;;28.73;6.28;;;13.40;48.30;;;;;;5020662;28;21534;-61
2024/02/01 10:11:04;;;;;;;18.80;5.68;;;13.30;48.50;;;;;;5026211;28;20067;-61
2024/02/01 10:13:35;;;;;;;27.70;6.35;;;13.30;48.60;;;;;;5028118;28;20361;-61
2024/02/01 10:16:12;;;;;;;13.80;6.38;;;13.20;48.70;;;;;;5018528;28;20084;-60
2024/02/01 10:18:43;;;;;;;27.13;6.70;;;13.10;48.70;;;;;;5027526;28;20041;-61
2024/02/01 10:21:22;;;;;;;13.88;5.88;;;13.00;48.90;;;;;;5026472;28;20057;-61
2024/02/01 10:24:04;;;;;;;22.58;6.05;;;12.90;49.10;;;;;;5027126;28;21559;-63
2024/02/01 10:26:33;;;;;;;19.88;6.47;;;12.90;49.30;;;;;;5022538;28;20106;-61
2024/02/01 10:29:02;;;;;;;21.58;7.47;;;12.90;49.50;;;;;;5034856;28;20578;-62
2024/02/01 10:31:31;;;;;;;28.20;9.73;;;12.90;49.60;;;;;;5021925;28;20049;-61
2024/02/01 10:34:10;;;;;;;18.52;6.50;;;12.90;49.60;;;;;;5018549;28;20118;-63
2024/02/01 10:36:42;;;;;;;47.30;10.40;;;13.00;49.90;;;;;;5013348;28;20041;-60
2024/02/01 10:39:19;;;;;;;15.32;6.25;;;13.00;49.80;;;;;;5037389;28;20398;-61
2024/02/01 10:41:54;;;;;;;17.02;6.85;;;13.10;49.80;;;;;;5027166;28;20119;-60
2024/02/01 10:44:32;;;;;;;;;;;13.10;49.90;;;;;;5020831;28;20053;-60
2024/02/01 10:47:04;;;;;;;20.33;7.38;;;13.10;49.80;;;;;;5030095;28;19942;-62
2024/02/01 10:49:38;;;;;;;32.60;9.57;;;13.10;49.80;;;;;;5023835;28;20517;-61
2024/02/01 10:52:07;;;;;;;23.02;6.75;;;13.10;49.90;;;;;;5025491;28;20059;-60
2024/02/01 10:54:37;;;;;;;20.40;5.80;;;13.00;50.00;;;;;;5025831;28;20088;-61
2024/02/01 10:57:06;;;;;;;16.77;7.63;;;13.00;50.20;;;;;;5021229;28;20085;-61
2024/02/01 10:59:37;;;;;;;12.45;5.70;;;13.00;50.40;;;;;;5018605;28;20084;-61
2024/02/01 11:02:06;;;;;;;15.48;5.25;;;13.00;50.50;;;;;;5033640;28;20503;-65
2024/02/01 11:04:38;;;;;;;24.05;6.40;;;13.00;50.60;;;;;;5019131;28;20057;-68
2024/02/01 11:07:07;;;;;;;36.90;12.30;;;13.00;50.70;;;;;;5020330;28;20139;-62
2024/02/01 11:09:42;;;;;;;32.08;8.32;;;13.00;50.70;;;;;;5028302;28;20408;-63
2024/02/01 11:12:13;;;;;;;21.08;7.03;;;13.00;50.80;;;;;;5030497;28;20052;-63
2024/02/01 11:14:42;;;;;;;29.90;7.75;;;13.10;50.80;;;;;;5017375;28;20056;-62
2024/02/01 11:17:20;;;;;;;16.55;6.68;;;13.10;50.80;;;;;;5015929;28;20689;-60
2024/02/01 11:19:51;;;;;;;54.78;16.73;;;13.10;51.10;;;;;;5016190;28;20076;-61
2024/02/01 11:22:21;;;;;;;18.75;8.27;;;13.10;51.00;;;;;;5029967;28;20069;-61
2024/02/01 11:24:49;;;;;;;39.70;11.10;;;13.10;51.10;;;;;;5029132;28;20136;-60
2024/02/01 11:27:24;;;;;;;24.63;8.50;;;13.10;51.20;;;;;;5020760;28;20056;-77
2024/02/01 11:29:55;;;;;;;22.10;9.02;;;13.20;51.30;;;;;;5028799;28;20663;-60
2024/02/01 11:32:33;;;;;;;16.27;7.07;;;13.20;51.20;;;;;;5024069;28;20094;-62
2024/02/01 11:35:05;;;;;;;19.45;6.60;;;13.20;51.50;;;;;;5033102;28;20143;-61
2024/02/01 11:37:34;;;;;;;19.48;7.93;;;13.10;51.40;;;;;;5020817;28;20127;-62
2024/02/01 11:40:15;;;;;;;31.75;9.55;;;13.10;51.50;;;;;;5015845;28;20169;-61
2024/02/01 11:42:44;;;;;;;20.10;6.20;;;13.10;51.80;;;;;;5026886;28;20104;-61
2024/02/01 11:45:15;;;;;;;23.33;8.88;;;13.10;51.70;;;;;;5024770;28;20610;-67
2024/02/01 11:47:45;;;;;;;35.40;8.77;;;13.00;51.70;;;;;;5018545;28;20069;-62
2024/02/01 11:50:15;;;;;;;27.35;9.82;;;13.00;51.90;;;;;;5034952;28;20087;-64
2024/02/01 11:52:52;;;;;;;31.08;10.48;;;13.00;51.90;;;;;;5028346;28;20048;-61
2024/02/01 11:55:21;;;;;;;54.05;15.13;;;12.90;52.10;;;;;;5025527;28;20091;-60
2024/02/01 11:57:57;;;;;;;49.35;12.55;;;12.90;52.10;;;;;;5026851;28;20106;-64
2024/02/01 12:00:25;;;;;;;37.90;12.27;;;12.90;52.20;;;;;;5031700;28;20068;-62
2024/02/01 12:03:14;;;;;;;27.75;9.43;;;13.00;52.40;;;;;;5047625;28;20048;-62
2024/02/01 12:05:46;;;;;;;14.90;5.60;;;12.90;52.30;;;;;;5030268;28;20526;-62
2024/02/01 12:08:15;;;;;;;23.67;7.07;;;12.90;52.50;;;;;;5039359;28;20754;-61
2024/02/01 12:10:45;;;;;;;18.75;6.53;;;12.90;52.50;;;;;;5029207;28;20049;-61
2024/02/01 12:13:16;;;;;;;24.13;9.70;;;12.90;53.30;;;;;;5028409;28;20163;-61
2024/02/01 12:15:45;;;;;;;15.13;5.95;;;12.90;52.70;;;;;;5033778;28;20508;-63
2024/02/01 12:18:14;;;;;;;25.50;6.45;;;12.90;52.90;;;;;;5023891;28;20096;-63
2024/02/01 12:20:43;;;;;;;20.88;7.40;;;13.00;53.00;;;;;;5036912;28;20076;-63
2024/02/01 12:23:14;;;;;;;14.73;6.70;;;13.00;53.10;;;;;;5037843;28;20059;-60
2024/02/01 12:25:47;;;;;;;12.98;5.95;;;13.00;53.20;;;;;;5033383;28;20067;-60
2024/02/01 12:28:15;;;;;;;29.95;5.47;;;13.00;53.40;;;;;;5028785;28;20537;-62
2024/02/01 12:30:45;;;;;;;6.80;3.40;;;13.00;53.40;;;;;;5039083;28;20057;-61
2024/02/01 12:33:14;;;;;;;6.82;2.05;;;13.10;55.20;;;;;;5035302;28;20083;-62
2024/02/01 12:35:45;;;;;;;3.67;2.25;;;13.10;58.80;;;;;;5035542;28;20065;-61
2024/02/01 12:38:16;;;;;;;5.47;2.13;;;13.10;59.90;;;;;;5036071;28;20061;-60
2024/02/01 12:40:46;;;;;;;5.03;2.83;;;13.20;60.60;;;;;;5031626;28;20433;-60
2024/02/01 12:43:15;;;;;;;21.13;5.80;;;13.20;61.00;;;;;;5042048;28;20796;-60
2024/02/01 12:45:46;;;;;;;38.78;2.83;;;13.20;61.10;;;;;;5036966;28;20045;-63
2024/02/01 12:48:16;;;;;;;6.72;2.95;;;13.30;61.40;;;;;;5030737;28;20065;-62
2024/02/01 12:50:46;;;;;;;12.10;5.03;;;13.30;61.50;;;;;;5029619;28;20409;-60
2024/02/01 12:53:16;;;;;;;14.80;4.70;;;13.30;61.60;;;;;;5030290;28;20952;-61
2024/02/01 12:55:45;;;;;;;4.85;2.03;;;13.30;62.30;;;;;;5036261;28;20506;-61
2024/02/01 12:58:17;;;;;;;4.85;1.83;;;13.30;62.70;;;;;;5035952;28;20157;-64
2024/02/01 13:00:46;;;;;;;1.95;1.02;;;13.40;62.90;;;;;;5026064;28;20049;-60
2024/02/01 13:03:15;;;;;;;3.05;2.33;;;13.50;63.00;;;;;;5022130;28;20126;-59
2024/02/01 13:05:44;;;;;;;1.98;1.42;;;13.50;63.00;;;;;;5029823;28;20130;-59
2024/02/01 13:08:14;;;;;;;6.43;1.83;;;13.50;63.20;;;;;;5034983;28;20076;-59
2024/02/01 13:10:45;;;;;;;3.13;2.00;;;13.50;63.40;;;;;;5030599;28;20068;-59
2024/02/01 13:13:13;;;;;;;2.13;1.48;;;13.40;63.90;;;;;;5037030;28;20053;-67
2024/02/01 13:15:46;;;;;;;1.30;1.20;;;13.40;63.60;;;;;;5024606;28;20056;-59
2024/02/01 13:18:15;;;;;;;12.27;3.33;;;13.40;63.50;;;;;;5036607;28;20069;-59
2024/02/01 13:20:43;;;;;;;0.75;0.75;;;13.30;63.50;;;;;;5029259;28;20045;-59
2024/02/01 13:23:12;;;;;;;1.92;0.82;;;13.30;63.40;;;;;;5031413;28;20053;-60
2024/02/01 13:25:43;;;;;;;3.35;1.63;;;13.30;63.40;;;;;;5033118;28;20502;-58
2024/02/01 13:28:12;;;;;;;2.55;1.10;;;13.20;63.30;;;;;;5029065;28;20725;-59
2024/02/01 13:30:43;;;;;;;1.40;0.60;;;13.10;63.40;;;;;;5035836;28;20101;-59
2024/02/01 13:33:13;;;;;;;0.40;0.40;;;13.10;63.50;;;;;;5035602;28;20077;-60
2024/02/01 13:35:41;;;;;;;0.85;0.85;;;13.10;63.50;;;;;;5026648;28;20138;-59
2024/02/01 13:38:11;;;;;;;0.47;0.47;;;13.10;63.40;;;;;;5025629;28;20072;-59